createdAt,value
2018-04-15T00:01:28.773Z,16.03
2018-04-15T00:03:56.242Z,15.93
2018-04-15T00:06:23.794Z,15.98
2018-04-15T00:08:51.246Z,16.03
2018-04-15T00:11:18.634Z,15.94
2018-04-15T00:13:46.060Z,15.83
2018-04-15T00:16:13.504Z,15.77
2018-04-15T00:18:40.941Z,15.73
2018-04-15T00:21:09.306Z,15.75
2018-04-15T00:23:36.760Z,15.76
2018-04-15T00:26:04.251Z,15.73
2018-04-15T00:28:31.696Z,15.77
2018-04-15T00:30:59.170Z,15.82
2018-04-15T00:33:26.637Z,15.83
2018-04-15T00:35:54.094Z,15.81
2018-04-15T00:38:21.662Z,15.78
2018-04-15T00:40:49.135Z,15.77
2018-04-15T00:43:16.608Z,15.82
2018-04-15T00:45:44.041Z,15.87
2018-04-15T00:48:11.518Z,15.87
2018-04-15T00:50:38.977Z,15.85
2018-04-15T00:53:06.420Z,15.83
2018-04-15T00:55:33.811Z,15.84
2018-04-15T00:58:01.276Z,15.83
2018-04-15T01:00:28.763Z,15.78
2018-04-15T01:02:56.343Z,15.77
2018-04-15T01:05:23.801Z,15.78
2018-04-15T01:07:51.235Z,15.81
2018-04-15T01:10:18.829Z,15.84
2018-04-15T01:12:46.253Z,15.87
2018-04-15T01:15:13.681Z,15.94
2018-04-15T01:17:41.078Z,15.97
2018-04-15T01:20:08.475Z,15.88
2018-04-15T01:22:35.913Z,15.80
2018-04-15T01:25:03.344Z,15.73
2018-04-15T01:27:30.809Z,15.64
2018-04-15T01:29:58.199Z,15.62
2018-04-15T01:32:25.801Z,15.63
2018-04-15T01:34:53.200Z,15.53
2018-04-15T01:37:20.638Z,15.44
2018-04-15T01:39:48.061Z,15.34
2018-04-15T01:42:15.517Z,15.30
2018-04-15T01:44:42.906Z,15.29
2018-04-15T01:47:10.388Z,15.20
2018-04-15T01:49:37.917Z,15.19
2018-04-15T01:52:05.557Z,15.20
2018-04-15T01:54:32.993Z,15.17
2018-04-15T01:57:00.416Z,15.13
2018-04-15T01:59:27.811Z,15.10
2018-04-15T02:01:55.296Z,15.10
2018-04-15T02:04:22.766Z,15.09
2018-04-15T02:06:50.203Z,15.09
2018-04-15T02:09:17.590Z,15.08
2018-04-15T02:11:45.182Z,15.10
2018-04-15T02:14:12.614Z,15.11
2018-04-15T02:16:40.059Z,15.10
2018-04-15T02:19:07.490Z,15.11
2018-04-15T02:21:34.951Z,15.11
2018-04-15T02:24:02.373Z,15.17
2018-04-15T02:26:29.880Z,15.19
2018-04-15T02:28:57.434Z,15.19
2018-04-15T02:31:25.062Z,15.15
2018-04-15T02:33:52.506Z,15.14
2018-04-15T02:36:19.970Z,15.13
2018-04-15T02:38:47.376Z,15.13
2018-04-15T02:41:14.804Z,15.15
2018-04-15T02:43:42.213Z,15.20
2018-04-15T02:46:09.655Z,15.20
2018-04-15T02:48:37.063Z,15.19
2018-04-15T02:51:04.538Z,15.20
2018-04-15T02:53:31.970Z,15.21
2018-04-15T02:55:59.398Z,15.20
2018-04-15T02:58:26.845Z,15.22
2018-04-15T03:00:54.374Z,15.27
2018-04-15T03:03:21.924Z,15.25
2018-04-15T03:05:49.396Z,15.17
2018-04-15T03:08:16.819Z,15.09
2018-04-15T03:10:44.250Z,15.05
2018-04-15T03:13:11.680Z,15.04
2018-04-15T03:15:39.081Z,14.93
2018-04-15T03:18:06.508Z,14.86
2018-04-15T03:20:33.911Z,14.84
2018-04-15T03:23:01.361Z,14.80
2018-04-15T03:25:28.753Z,14.82
2018-04-15T03:27:56.188Z,14.82
2018-04-15T03:30:23.664Z,14.79
2018-04-15T03:32:51.121Z,14.69
2018-04-15T03:35:18.599Z,14.47
2018-04-15T03:37:46.060Z,14.26
2018-04-15T03:40:13.500Z,14.17
2018-04-15T03:42:40.954Z,14.20
2018-04-15T03:45:08.371Z,14.23
2018-04-15T03:47:35.837Z,14.25
2018-04-15T03:50:03.267Z,14.22
2018-04-15T03:52:30.725Z,14.19
2018-04-15T03:54:58.188Z,14.15
2018-04-15T03:57:25.609Z,14.09
2018-04-15T03:59:53.066Z,14.05
2018-04-15T04:02:20.499Z,14.10
2018-04-15T04:04:48.593Z,14.14
2018-04-15T04:07:16.053Z,14.18
2018-04-15T04:09:43.439Z,14.24
2018-04-15T04:12:10.862Z,14.25
2018-04-15T04:14:38.250Z,14.26
2018-04-15T04:17:05.688Z,14.28
2018-04-15T04:19:44.838Z,14.32
2018-04-15T04:22:23.985Z,14.35
2018-04-15T04:28:07.535Z,14.63
2018-04-15T04:30:35.161Z,14.61
2018-04-15T04:33:02.642Z,14.53
2018-04-15T04:35:30.080Z,14.47
2018-04-15T04:37:57.524Z,14.33
2018-04-15T04:40:24.999Z,14.13
2018-04-15T04:42:52.491Z,13.95
2018-04-15T04:45:19.897Z,13.85
2018-04-15T04:47:47.349Z,13.79
2018-04-15T04:50:14.824Z,13.77
2018-04-15T04:52:42.252Z,13.73
2018-04-15T04:55:09.635Z,13.69
2018-04-15T04:57:37.124Z,13.56
2018-04-15T05:00:04.627Z,13.52
2018-04-15T05:02:32.015Z,13.49
2018-04-15T05:04:59.443Z,13.32
2018-04-15T05:07:26.904Z,13.10
2018-04-15T05:09:54.315Z,13.13
2018-04-15T05:12:21.743Z,13.16
2018-04-15T05:14:49.774Z,13.29
2018-04-15T05:17:17.186Z,13.40
2018-04-15T05:19:44.629Z,13.48
2018-04-15T05:22:12.047Z,13.61
2018-04-15T05:24:39.428Z,13.70
2018-04-15T05:27:06.975Z,13.83
2018-04-15T05:29:34.362Z,13.99
2018-04-15T05:32:01.836Z,14.13
2018-04-15T05:34:29.291Z,14.24
2018-04-15T05:36:56.683Z,14.33
2018-04-15T05:39:24.116Z,14.42
2018-04-15T05:41:52.182Z,14.51
2018-04-15T05:44:19.607Z,14.63
2018-04-15T05:46:47.063Z,14.64
2018-04-15T05:49:14.501Z,14.63
2018-04-15T05:51:42.021Z,14.56
2018-04-15T05:54:09.476Z,14.53
2018-04-15T05:56:36.863Z,14.51
2018-04-15T05:59:04.265Z,14.57
2018-04-15T06:01:31.663Z,14.64
2018-04-15T06:03:59.178Z,14.89
2018-04-15T06:06:26.599Z,15.26
2018-04-15T06:08:54.303Z,15.48
2018-04-15T06:11:21.783Z,15.81
2018-04-15T06:13:49.672Z,16.06
2018-04-15T06:16:17.097Z,16.15
2018-04-15T06:18:44.581Z,16.06
2018-04-15T06:21:12.206Z,15.92
2018-04-15T06:23:39.637Z,16.00
2018-04-15T06:26:07.087Z,16.23
2018-04-15T06:28:34.523Z,16.72
2018-04-15T06:31:01.965Z,17.25
2018-04-15T06:33:29.354Z,17.58
2018-04-15T06:35:56.862Z,17.84
2018-04-15T06:38:24.363Z,18.15
2018-04-15T06:40:51.844Z,18.49
2018-04-15T06:43:19.311Z,18.73
2018-04-15T06:45:46.744Z,18.96
2018-04-15T06:48:14.180Z,19.18
2018-04-15T06:50:41.646Z,19.47
2018-04-15T06:53:09.126Z,19.59
2018-04-15T06:55:36.532Z,19.68
2018-04-15T06:58:03.971Z,19.61
2018-04-15T07:00:31.397Z,19.91
2018-04-15T07:02:58.773Z,20.01
2018-04-15T07:05:26.231Z,20.30
2018-04-15T07:07:53.692Z,20.19
2018-04-15T07:10:21.137Z,20.42
2018-04-15T07:12:48.575Z,20.44
2018-04-15T07:15:16.036Z,20.59
2018-04-15T07:17:43.511Z,20.93
2018-04-15T07:20:10.952Z,21.29
2018-04-15T07:22:38.393Z,21.18
2018-04-15T07:25:05.949Z,21.03
2018-04-15T07:27:33.393Z,21.04
2018-04-15T07:30:00.860Z,21.65
2018-04-15T07:32:28.325Z,22.28
2018-04-15T07:34:55.719Z,22.72
2018-04-15T07:37:23.164Z,22.23
2018-04-15T07:39:50.800Z,21.90
2018-04-15T07:42:18.689Z,21.81
2018-04-15T07:44:46.122Z,21.90
2018-04-15T07:47:13.546Z,22.05
2018-04-15T07:49:40.956Z,22.17
2018-04-15T07:52:08.346Z,22.00
2018-04-15T07:54:35.786Z,22.09
2018-04-15T07:57:03.253Z,22.58
2018-04-15T07:59:30.748Z,22.50
2018-04-15T08:01:58.163Z,22.05
2018-04-15T08:04:25.621Z,22.52
2018-04-15T08:06:53.040Z,22.88
2018-04-15T08:09:20.492Z,23.28
2018-04-15T08:11:47.965Z,23.32
2018-04-15T08:14:15.389Z,23.37
2018-04-15T08:16:42.864Z,23.62
2018-04-15T08:19:10.258Z,23.33
2018-04-15T08:21:37.689Z,23.17
2018-04-15T08:24:05.110Z,22.99
2018-04-15T08:26:32.577Z,22.79
2018-04-15T08:29:00.055Z,22.83
2018-04-15T08:31:27.516Z,23.13
2018-04-15T08:33:54.983Z,23.49
2018-04-15T08:36:22.465Z,23.84
2018-04-15T08:38:49.875Z,23.55
2018-04-15T08:41:17.337Z,23.03
2018-04-15T08:43:44.812Z,22.70
2018-04-15T08:46:12.243Z,22.78
2018-04-15T08:48:39.749Z,22.66
2018-04-15T08:51:07.215Z,22.55
2018-04-15T08:53:34.677Z,22.19
2018-04-15T08:56:02.107Z,21.97
2018-04-15T08:58:29.549Z,21.85
2018-04-15T09:00:56.948Z,21.94
2018-04-15T09:03:24.380Z,21.92
2018-04-15T09:05:51.826Z,22.41
2018-04-15T09:08:19.305Z,22.69
2018-04-15T09:10:46.771Z,22.69
2018-04-15T09:13:14.220Z,22.87
2018-04-15T09:15:41.683Z,23.42
2018-04-15T09:18:09.131Z,23.27
2018-04-15T09:20:36.565Z,23.35
2018-04-15T09:23:04.007Z,23.24
2018-04-15T09:25:31.475Z,22.66
2018-04-15T09:27:58.932Z,22.68
2018-04-15T09:30:26.389Z,22.71
2018-04-15T09:32:53.829Z,22.49
2018-04-15T09:35:21.281Z,22.46
2018-04-15T09:37:48.718Z,22.47
2018-04-15T09:40:16.288Z,22.28
2018-04-15T09:42:43.765Z,22.13
2018-04-15T09:45:11.202Z,22.18
2018-04-15T09:47:38.679Z,21.84
2018-04-15T09:50:07.045Z,21.51
2018-04-15T09:52:34.499Z,21.50
2018-04-15T09:55:01.973Z,21.36
2018-04-15T09:57:29.445Z,20.90
2018-04-15T09:59:56.866Z,20.83
2018-04-15T10:02:24.326Z,20.78
2018-04-15T10:04:51.758Z,20.91
2018-04-15T10:07:19.191Z,21.05
2018-04-15T10:09:46.600Z,21.22
2018-04-15T10:12:14.077Z,21.21
2018-04-15T10:14:41.595Z,21.12
2018-04-15T10:17:09.032Z,21.14
2018-04-15T10:19:36.502Z,21.03
2018-04-15T10:22:03.929Z,20.99
2018-04-15T10:24:31.412Z,20.92
2018-04-15T10:26:58.855Z,21.00
2018-04-15T10:29:26.334Z,21.28
2018-04-15T10:31:53.839Z,21.19
2018-04-15T10:34:21.279Z,21.14
2018-04-15T10:36:48.723Z,21.35
2018-04-15T10:39:16.159Z,21.28
2018-04-15T10:41:43.597Z,21.23
2018-04-15T10:44:11.062Z,21.61
2018-04-15T10:46:38.482Z,21.93
2018-04-15T10:49:05.912Z,22.24
2018-04-15T10:51:33.349Z,22.30
2018-04-15T10:54:00.825Z,22.24
2018-04-15T10:56:28.289Z,22.24
2018-04-15T10:58:55.763Z,22.04
2018-04-15T11:01:23.223Z,22.37
2018-04-15T11:03:50.648Z,22.34
2018-04-15T11:06:18.101Z,22.37
2018-04-15T11:08:45.569Z,22.52
2018-04-15T11:11:12.975Z,22.76
2018-04-15T11:13:40.448Z,22.94
2018-04-15T11:16:07.901Z,23.13
2018-04-15T11:18:35.321Z,23.43
2018-04-15T11:21:02.817Z,23.46
2018-04-15T11:23:30.262Z,23.32
2018-04-15T11:25:57.713Z,23.40
2018-04-15T11:28:25.199Z,23.13
2018-04-15T11:30:52.639Z,23.07
2018-04-15T11:33:20.060Z,23.20
2018-04-15T11:35:47.516Z,23.02
2018-04-15T11:38:15.093Z,22.86
2018-04-15T11:40:42.517Z,22.77
2018-04-15T11:43:09.966Z,22.59
2018-04-15T11:45:37.374Z,22.48
2018-04-15T11:48:05.189Z,22.71
2018-04-15T11:50:32.806Z,23.06
2018-04-15T11:53:00.225Z,22.95
2018-04-15T11:55:27.666Z,23.01
2018-04-15T11:57:55.146Z,23.10
2018-04-15T12:00:22.553Z,23.51
2018-04-15T12:02:50.136Z,23.52
2018-04-15T12:05:17.562Z,23.25
2018-04-15T12:07:44.977Z,23.35
2018-04-15T12:10:12.488Z,23.25
2018-04-15T12:12:39.962Z,23.06
2018-04-15T12:15:07.406Z,23.05
2018-04-15T12:17:34.819Z,23.40
2018-04-15T12:20:02.297Z,23.31
2018-04-15T12:22:29.762Z,23.16
2018-04-15T12:24:57.157Z,23.21
2018-04-15T12:27:24.566Z,23.55
2018-04-15T12:29:52.036Z,23.65
2018-04-15T12:32:19.440Z,23.98
2018-04-15T12:34:46.881Z,24.09
2018-04-15T12:37:14.324Z,24.02
2018-04-15T12:39:41.766Z,24.03
2018-04-15T12:42:09.227Z,24.04
2018-04-15T12:44:36.752Z,24.26
2018-04-15T12:47:04.504Z,24.22
2018-04-15T12:49:31.952Z,24.39
2018-04-15T12:51:59.339Z,24.65
2018-04-15T12:54:26.793Z,24.86
2018-04-15T12:56:54.259Z,24.89
2018-04-15T12:59:21.687Z,25.24
2018-04-15T13:01:49.135Z,24.74
2018-04-15T13:04:16.595Z,24.92
2018-04-15T13:06:44.223Z,25.31
2018-04-15T13:09:11.639Z,25.26
2018-04-15T13:11:39.050Z,25.01
2018-04-15T13:14:06.537Z,24.96
2018-04-15T13:16:33.980Z,24.84
2018-04-15T13:19:01.420Z,24.80
2018-04-15T13:21:28.893Z,24.83
2018-04-15T13:23:56.328Z,25.32
2018-04-15T13:26:23.946Z,24.93
2018-04-15T13:28:51.458Z,24.79
2018-04-15T13:31:18.917Z,24.74
2018-04-15T13:33:46.361Z,25.09
2018-04-15T13:36:13.801Z,25.34
2018-04-15T13:38:41.279Z,25.39
2018-04-15T13:41:08.740Z,25.33
2018-04-15T13:43:36.177Z,25.10
2018-04-15T13:46:03.619Z,24.99
2018-04-15T13:48:31.124Z,24.86
2018-04-15T13:50:58.615Z,24.73
2018-04-15T13:53:26.068Z,24.66
2018-04-15T13:55:53.561Z,25.02
2018-04-15T13:58:21.093Z,24.92
2018-04-15T14:00:48.578Z,24.61
2018-04-15T14:03:16.083Z,24.43
2018-04-15T14:05:43.746Z,24.34
2018-04-15T14:08:11.305Z,24.52
2018-04-15T14:10:38.756Z,24.85
2018-04-15T14:13:06.400Z,25.28
2018-04-15T14:15:34.026Z,25.59
2018-04-15T14:18:01.464Z,25.83
2018-04-15T14:20:28.964Z,25.90
2018-04-15T14:22:56.476Z,25.80
2018-04-15T14:25:23.923Z,25.53
2018-04-15T14:27:51.437Z,25.30
2018-04-15T14:30:18.902Z,25.18
2018-04-15T14:32:46.404Z,25.14
2018-04-15T14:35:13.861Z,24.99
2018-04-15T14:37:41.253Z,24.67
2018-04-15T14:40:08.802Z,24.48
2018-04-15T14:42:36.266Z,24.32
2018-04-15T14:45:03.763Z,24.28
2018-04-15T14:47:31.207Z,24.19
2018-04-15T14:49:58.690Z,23.89
2018-04-15T14:52:26.425Z,23.94
2018-04-15T14:54:53.845Z,23.88
2018-04-15T14:57:21.312Z,23.80
2018-04-15T14:59:48.730Z,23.79
2018-04-15T15:02:16.168Z,23.81
2018-04-15T15:04:44.538Z,23.67
2018-04-15T15:07:12.111Z,23.55
2018-04-15T15:09:39.605Z,23.55
2018-04-15T15:12:07.186Z,23.44
2018-04-15T15:14:34.673Z,23.49
2018-04-15T15:17:02.109Z,23.42
2018-04-15T15:19:29.592Z,23.25
2018-04-15T15:21:56.990Z,23.22
2018-04-15T15:24:24.401Z,23.13
2018-04-15T15:26:51.835Z,23.21
2018-04-15T15:29:19.345Z,23.29
2018-04-15T15:31:46.783Z,23.24
2018-04-15T15:34:14.273Z,23.20
2018-04-15T15:36:41.776Z,23.23
2018-04-15T15:39:09.229Z,23.16
2018-04-15T15:41:36.703Z,23.08
2018-04-15T15:44:04.924Z,23.04
2018-04-15T15:46:32.357Z,22.98
2018-04-15T15:48:59.783Z,22.93
2018-04-15T15:51:27.220Z,22.89
2018-04-15T15:53:54.736Z,22.92
2018-04-15T15:56:22.238Z,22.91
2018-04-15T15:58:49.633Z,22.90
2018-04-15T16:01:17.216Z,22.81
2018-04-15T16:03:44.665Z,22.69
2018-04-15T16:06:12.103Z,22.66
2018-04-15T16:08:39.717Z,22.65
2018-04-15T16:11:07.290Z,22.60
2018-04-15T16:13:34.812Z,22.61
2018-04-15T16:16:02.202Z,22.68
2018-04-15T16:18:29.598Z,22.63
2018-04-15T16:20:57.070Z,22.65
2018-04-15T16:23:24.689Z,22.45
2018-04-15T16:25:52.227Z,22.27
2018-04-15T16:28:19.672Z,22.18
2018-04-15T16:30:47.104Z,22.11
2018-04-15T16:33:14.585Z,22.06
2018-04-15T16:35:42.044Z,22.01
2018-04-15T16:38:09.698Z,21.97
2018-04-15T16:40:37.164Z,21.94
2018-04-15T16:43:04.616Z,21.81
2018-04-15T16:45:32.012Z,21.72
2018-04-15T16:47:59.588Z,21.64
2018-04-15T16:50:27.011Z,21.43
2018-04-15T16:52:54.547Z,21.26
2018-04-15T16:55:22.217Z,21.18
2018-04-15T16:57:49.661Z,21.10
2018-04-15T17:00:17.149Z,21.07
2018-04-15T17:02:44.604Z,21.10
2018-04-15T17:05:12.026Z,21.03
2018-04-15T17:07:39.500Z,20.93
2018-04-15T17:10:06.956Z,20.82
2018-04-15T17:12:34.522Z,20.74
2018-04-15T17:15:02.035Z,20.70
2018-04-15T17:17:29.472Z,20.64
2018-04-15T17:19:56.917Z,20.61
2018-04-15T17:22:24.412Z,20.58
2018-04-15T17:24:52.452Z,20.48
2018-04-15T17:27:19.880Z,20.45
2018-04-15T17:29:47.547Z,20.41
2018-04-15T17:32:15.096Z,20.35
2018-04-15T17:34:42.538Z,20.40
2018-04-15T17:37:09.960Z,20.39
2018-04-15T17:39:37.400Z,20.31
2018-04-15T17:42:04.864Z,20.23
2018-04-15T17:44:32.324Z,20.13
2018-04-15T17:46:59.925Z,20.01
2018-04-15T17:49:27.341Z,19.76
2018-04-15T17:51:54.832Z,19.49
2018-04-15T17:54:22.262Z,19.44
2018-04-15T17:56:49.657Z,19.46
2018-04-15T17:59:17.114Z,19.45
2018-04-15T18:01:44.572Z,19.46
2018-04-15T18:04:12.036Z,19.50
2018-04-15T18:06:39.505Z,19.44
2018-04-15T18:09:06.950Z,19.41
2018-04-15T18:11:34.445Z,19.41
2018-04-15T18:14:01.839Z,19.41
2018-04-15T18:16:29.320Z,19.42
2018-04-15T18:18:56.747Z,19.41
2018-04-15T18:21:24.205Z,19.39
2018-04-15T18:23:51.637Z,19.37
2018-04-15T18:26:19.235Z,19.35
2018-04-15T18:28:46.729Z,19.37
2018-04-15T18:31:14.130Z,19.34
2018-04-15T18:33:41.556Z,19.26
2018-04-15T18:36:08.986Z,19.30
2018-04-15T18:38:36.434Z,19.38
2018-04-15T18:41:03.855Z,19.38
2018-04-15T18:43:31.274Z,19.33
2018-04-15T18:45:58.761Z,19.30
2018-04-15T18:48:26.169Z,19.28
2018-04-15T18:50:53.629Z,19.21
2018-04-15T18:53:21.105Z,19.20
2018-04-15T18:55:48.519Z,19.24
2018-04-15T18:58:15.922Z,19.21
2018-04-15T19:00:43.448Z,19.20
2018-04-15T19:03:10.887Z,19.12
2018-04-15T19:05:38.390Z,19.14
2018-04-15T19:08:05.921Z,19.11
2018-04-15T19:10:33.511Z,19.13
2018-04-15T19:13:01.005Z,19.15
2018-04-15T19:15:28.483Z,19.13
2018-04-15T19:17:56.719Z,19.13
2018-04-15T19:20:24.199Z,19.12
2018-04-15T19:22:51.693Z,19.07
2018-04-15T19:25:19.123Z,19.03
2018-04-15T19:27:46.564Z,19.04
2018-04-15T19:30:14.004Z,18.92
2018-04-15T19:32:41.502Z,18.83
2018-04-15T19:35:09.192Z,18.81
2018-04-15T19:37:36.664Z,18.76
2018-04-15T19:40:04.078Z,18.74
2018-04-15T19:42:31.488Z,18.78
2018-04-15T19:44:58.956Z,18.82
2018-04-15T19:47:26.364Z,18.84
2018-04-15T19:49:53.793Z,18.87
2018-04-15T19:52:22.395Z,18.84
2018-04-15T19:54:49.796Z,18.86
2018-04-15T19:57:17.315Z,18.88
2018-04-15T19:59:44.779Z,18.79
2018-04-15T20:02:12.228Z,18.67
2018-04-15T20:04:39.762Z,18.57
2018-04-15T20:07:07.591Z,18.56
2018-04-15T20:09:35.092Z,18.46
2018-04-15T20:12:02.501Z,18.38
2018-04-15T20:14:29.943Z,18.38
2018-04-15T20:16:57.384Z,18.44
2018-04-15T20:19:24.845Z,18.53
2018-04-15T20:21:52.303Z,18.55
2018-04-15T20:24:19.725Z,18.60
2018-04-15T20:26:47.188Z,18.58
2018-04-15T20:29:14.664Z,18.58
2018-04-15T20:31:42.100Z,18.58
2018-04-15T20:34:09.487Z,18.58
2018-04-15T20:36:37.071Z,18.59
2018-04-15T20:39:04.512Z,18.61
2018-04-15T20:41:31.960Z,18.67
2018-04-15T20:43:59.411Z,18.71
2018-04-15T20:46:26.876Z,18.70
2018-04-15T20:48:54.308Z,18.64
2018-04-15T20:51:21.725Z,18.62
2018-04-15T20:53:49.246Z,18.62
2018-04-15T20:56:16.651Z,18.48
2018-04-15T20:58:44.170Z,18.31
2018-04-15T21:01:11.591Z,18.20
2018-04-15T21:03:39.024Z,18.19
2018-04-15T21:06:06.425Z,18.23
2018-04-15T21:08:33.899Z,18.22
2018-04-15T21:11:01.362Z,18.21
2018-04-15T21:13:28.783Z,18.21
2018-04-15T21:15:56.234Z,18.19
2018-04-15T21:18:23.703Z,18.16
2018-04-15T21:20:51.130Z,18.14
2018-04-15T21:23:18.564Z,18.10
2018-04-15T21:25:46.036Z,18.14
2018-04-15T21:28:13.470Z,18.13
2018-04-15T21:30:40.946Z,18.14
2018-04-15T21:33:08.331Z,18.18
2018-04-15T21:35:35.800Z,18.16
2018-04-15T21:38:03.275Z,18.19
2018-04-15T21:40:31.396Z,18.23
2018-04-15T21:42:58.802Z,18.26
2018-04-15T21:45:26.244Z,17.97
2018-04-15T21:47:53.644Z,17.88
2018-04-15T21:50:21.177Z,17.88
2018-04-15T21:52:48.652Z,17.88
2018-04-15T21:55:16.072Z,17.89
2018-04-15T21:57:43.499Z,17.90
2018-04-15T22:00:10.925Z,17.97
2018-04-15T22:02:38.378Z,18.04
2018-04-15T22:05:05.861Z,17.95
2018-04-15T22:07:33.287Z,17.75
2018-04-15T22:10:00.695Z,17.64
2018-04-15T22:12:28.666Z,17.53
2018-04-15T22:14:56.204Z,17.48
2018-04-15T22:17:23.682Z,17.40
2018-04-15T22:19:51.157Z,17.35
2018-04-15T22:22:18.865Z,17.35
2018-04-15T22:24:46.347Z,17.44
2018-04-15T22:27:13.807Z,17.48
2018-04-15T22:29:41.220Z,17.51
2018-04-15T22:32:09.103Z,17.36
2018-04-15T22:34:36.524Z,17.20
2018-04-15T22:37:03.994Z,17.03
2018-04-15T22:39:31.394Z,16.89
2018-04-15T22:41:58.805Z,16.78
2018-04-15T22:44:26.227Z,16.76
2018-04-15T22:46:53.657Z,16.80
2018-04-15T22:49:23.218Z,16.78
2018-04-15T22:51:50.665Z,16.83
2018-04-15T22:54:18.078Z,16.87
2018-04-15T22:56:45.512Z,16.84
2018-04-15T22:59:13.292Z,16.66
2018-04-15T23:01:40.704Z,16.55
2018-04-15T23:04:08.106Z,16.59
2018-04-15T23:06:35.506Z,16.73
2018-04-15T23:09:02.914Z,16.84
2018-04-15T23:11:30.357Z,16.88
2018-04-15T23:13:57.759Z,16.91
2018-04-15T23:16:25.223Z,16.91
2018-04-15T23:18:52.651Z,16.86
2018-04-15T23:21:20.171Z,16.81
2018-04-15T23:23:47.615Z,16.70
2018-04-15T23:26:15.055Z,16.66
2018-04-15T23:28:42.517Z,16.55
2018-04-15T23:31:09.972Z,16.56
2018-04-15T23:33:37.395Z,16.69
2018-04-15T23:36:04.833Z,16.69
2018-04-15T23:38:32.372Z,16.62
2018-04-15T23:40:59.834Z,16.47
2018-04-15T23:43:27.247Z,16.49
2018-04-15T23:45:54.729Z,16.55
2018-04-15T23:48:22.207Z,16.57
2018-04-15T23:50:49.598Z,16.57
2018-04-15T23:53:17.007Z,16.64
2018-04-15T23:55:44.473Z,16.69
2018-04-15T23:58:11.877Z,16.74
